Terminal Aerodrome Forecast
Issued by NWS

Home | Current Version | Previous Version | Text Only | Print | Product List | Glossary On
Versions: 1 2 3 4 5 6 7 8 9 10 11 12 13 14 15 16 17 18 19
613
FTUS41 KBTV 100522
TAFMSS
TAF
KMSS 100522Z 1006/1106 VRB04KT P6SM VCSH OVC045
     FM101200 VRB04KT P6SM SCT045
     FM102000 25005KT P6SM BKN040=

USA.gov is the U.S. government's official web portal to all federal, state and local government web resources and services.